Time;durP1;ratioP1;P1;durP2;ratioP2;P2;SDS_P1;SDS_P2;PMS_P1;PMS_P2;Temp;Humidity;BMP_temperature;BMP_pressure;BME280_temperature;BME280_humidity;BME280_pressure;Samples;Min_cycle;Max_cycle;Signal;HPM_P1;HPM_P2
2022/01/16 00:00:40;;;;;;;;;;;20.60;32.90;;;;;;498859;239;2342;-43
2022/01/16 00:04:45;;;;;;;;;;;20.60;32.80;;;;;;498436;239;1048;-43
2022/01/16 00:06:46;;;;;;;;;;;20.60;32.60;;;;;;498352;239;1218;-43
2022/01/16 00:08:47;;;;;;;;;;;20.60;32.50;;;;;;498867;239;1068;-43
2022/01/16 00:10:49;;;;;;;;;;;20.50;32.50;;;;;;498744;239;1218;-43
2022/01/16 00:12:52;;;;;;;;;;;20.50;32.70;;;;;;498829;239;1165;-43
2022/01/16 00:14:51;;;;;;;;;;;20.60;32.80;;;;;;498458;239;1417;-43
2022/01/16 00:16:53;;;;;;;;;;;20.60;32.60;;;;;;498370;239;1256;-43
2022/01/16 00:18:54;;;;;;;;;;;20.80;32.30;;;;;;498904;239;1055;-43
2022/01/16 00:20:55;;;;;;;;;;;21.00;32.10;;;;;;498856;239;1178;-43
2022/01/16 00:22:57;;;;;;;;;;;21.20;31.80;;;;;;498506;239;2188;-43
2022/01/16 00:25:02;;;;;;;;;;;21.20;31.60;;;;;;498540;239;2248;-43
2022/01/16 00:26:59;;;;;;;;;;;21.30;31.40;;;;;;498540;239;2396;-43
2022/01/16 00:29:00;;;;;;;;;;;21.40;31.30;;;;;;498922;239;1042;-43
2022/01/16 00:31:02;;;;;;;;;;;21.40;31.20;;;;;;498710;239;1308;-43
2022/01/16 00:33:03;;;;;;;;;;;21.50;31.10;;;;;;498921;239;1171;-43
2022/01/16 00:35:04;;;;;;;;;;;21.60;30.90;;;;;;498471;239;1065;-43
2022/01/16 00:37:06;;;;;;;;;;;21.60;30.80;;;;;;498426;239;1201;-43
2022/01/16 00:39:07;;;;;;;;;;;21.60;30.70;;;;;;498515;239;1005;-43
2022/01/16 00:41:08;;;;;;;;;;;21.70;30.70;;;;;;498874;239;1167;-43
2022/01/16 00:43:10;;;;;;;;;;;21.70;30.70;;;;;;498878;239;2181;-43
2022/01/16 00:45:11;;;;;;;;;;;21.70;30.80;;;;;;498937;239;1059;-43
2022/01/16 00:47:12;;;;;;;;;;;21.80;30.80;;;;;;498797;239;1487;-43
2022/01/16 00:49:13;;;;;;;;;;;21.90;30.90;;;;;;498623;239;983;-43
2022/01/16 00:51:15;;;;;;;;;;;21.90;30.90;;;;;;498737;239;1236;-42
2022/01/16 00:53:16;;;;;;;;;;;21.90;30.90;;;;;;498533;239;1191;-43
2022/01/16 00:55:17;;;;;;;;;;;22.00;30.90;;;;;;498858;239;1144;-43
2022/01/16 00:57:19;;;;;;;;;;;22.00;30.80;;;;;;498467;239;1555;-43
2022/01/16 00:59:20;;;;;;;;;;;22.00;30.90;;;;;;498944;239;1048;-43
2022/01/16 01:01:21;;;;;;;;;;;22.00;30.60;;;;;;498778;239;1290;-43
2022/01/16 01:03:23;;;;;;;;;;;22.00;30.50;;;;;;498452;239;2169;-43
2022/01/16 01:05:24;;;;;;;;;;;22.00;30.30;;;;;;498920;239;1360;-43
2022/01/16 01:07:25;;;;;;;;;;;22.10;30.40;;;;;;498278;239;1634;-43
2022/01/16 01:09:27;;;;;;;;;;;22.00;30.30;;;;;;498508;239;1078;-43
2022/01/16 01:11:29;;;;;;;;;;;22.10;30.20;;;;;;498802;239;1322;-43
2022/01/16 01:13:43;;;;;;;;;;;22.10;30.20;;;;;;498570;239;2367;-43
2022/01/16 01:15:41;;;;;;;;;;;22.10;30.10;;;;;;497656;239;2031;-43
2022/01/16 01:17:42;;;;;;;;;;;22.10;30.10;;;;;;497914;239;2083;-43
2022/01/16 01:19:37;;;;;;;;;;;22.10;30.10;;;;;;498359;239;2090;-44
2022/01/16 01:21:38;;;;;;;;;;;22.10;30.10;;;;;;498796;239;1434;-43
2022/01/16 01:23:39;;;;;;;;;;;22.20;30.10;;;;;;498458;239;2189;-43
2022/01/16 01:25:41;;;;;;;;;;;22.20;30.10;;;;;;498803;239;1050;-43
2022/01/16 01:27:43;;;;;;;;;;;22.20;30.10;;;;;;498304;239;2585;-43
2022/01/16 01:29:50;;;;;;;;;;;22.20;30.10;;;;;;498760;239;2212;-43
2022/01/16 01:31:45;;;;;;;;;;;22.20;30.00;;;;;;497940;239;2392;-43
2022/01/16 01:33:46;;;;;;;;;;;22.20;30.00;;;;;;498399;239;1219;-43
2022/01/16 01:35:48;;;;;;;;;;;22.20;30.00;;;;;;498629;239;1355;-43
2022/01/16 01:37:49;;;;;;;;;;;22.20;30.00;;;;;;498741;239;1372;-43
2022/01/16 01:39:50;;;;;;;;;;;22.30;30.00;;;;;;498917;239;1027;-43
2022/01/16 01:42:02;;;;;;;;;;;22.30;30.00;;;;;;498823;239;1225;-43
2022/01/16 01:51:05;;;;;;;;;;;22.30;30.00;;;;;;498747;239;1333;-43
2022/01/16 01:53:04;;;;;;;;;;;22.40;30.00;;;;;;498598;239;2377;-44
2022/01/16 01:55:06;;;;;;;;;;;22.40;30.00;;;;;;498584;239;1153;-43
2022/01/16 01:57:07;;;;;;;;;;;22.40;30.00;;;;;;498307;235;1381;-43
2022/01/16 01:59:08;;;;;;;;;;;22.30;30.00;;;;;;498686;239;1101;-43
2022/01/16 02:01:10;;;;;;;;;;;22.40;30.00;;;;;;498294;239;1210;-43
2022/01/16 02:03:16;;;;;;;;;;;22.30;30.00;;;;;;498522;239;2200;-43
2022/01/16 02:05:14;;;;;;;;;;;22.40;30.00;;;;;;498702;239;2053;-43
2022/01/16 02:07:15;;;;;;;;;;;22.40;30.00;;;;;;498413;239;1536;-43
2022/01/16 02:09:17;;;;;;;;;;;22.40;30.00;;;;;;498586;239;1192;-43
2022/01/16 02:11:18;;;;;;;;;;;22.40;30.00;;;;;;498658;239;1189;-43
2022/01/16 02:13:25;;;;;;;;;;;22.50;30.00;;;;;;498918;239;1006;-43
2022/01/16 02:15:38;;;;;;;;;;;22.40;30.00;;;;;;498226;239;1952;-43
2022/01/16 02:29:37;;;;;;;;;;;22.50;30.00;;;;;;498449;239;1068;-43
2022/01/16 02:31:17;;;;;;;;;;;22.50;30.00;;;;;;497407;239;1196;-43
2022/01/16 02:35:44;;;;;;;;;;;22.50;30.00;;;;;;489359;239;1326;-44
2022/01/16 02:37:42;;;;;;;;;;;22.50;29.90;;;;;;498138;239;2597;-43
2022/01/16 02:39:47;;;;;;;;;;;22.50;29.90;;;;;;498406;239;1382;-43
2022/01/16 02:41:45;;;;;;;;;;;22.50;29.90;;;;;;498126;239;2062;-43
2022/01/16 02:43:50;;;;;;;;;;;22.50;29.90;;;;;;498832;239;2200;-43
2022/01/16 02:45:58;;;;;;;;;;;22.50;29.90;;;;;;498199;239;2096;-43
2022/01/16 02:47:49;;;;;;;;;;;22.50;29.90;;;;;;497792;239;2343;-43
2022/01/16 02:49:51;;;;;;;;;;;22.60;29.90;;;;;;498721;239;1013;-44
2022/01/16 02:51:52;;;;;;;;;;;22.60;29.90;;;;;;498357;239;2225;-43
2022/01/16 02:53:53;;;;;;;;;;;22.60;29.90;;;;;;498743;239;1174;-43
2022/01/16 02:55:54;;;;;;;;;;;22.60;29.90;;;;;;498662;239;1430;-43
2022/01/16 02:57:56;;;;;;;;;;;22.60;29.90;;;;;;498366;239;1105;-43
2022/01/16 02:59:57;;;;;;;;;;;22.60;30.00;;;;;;498901;239;1096;-43
2022/01/16 03:01:58;;;;;;;;;;;22.60;29.90;;;;;;498552;239;1196;-43
2022/01/16 03:03:59;;;;;;;;;;;22.60;29.90;;;;;;498620;239;2106;-43
2022/01/16 03:06:01;;;;;;;;;;;22.60;29.90;;;;;;498862;239;1175;-43
2022/01/16 03:08:04;;;;;;;;;;;22.60;29.90;;;;;;498833;239;1204;-43
2022/01/16 03:10:17;;;;;;;;;;;22.60;29.90;;;;;;498438;239;2474;-43
2022/01/16 03:12:09;;;;;;;;;;;22.60;29.90;;;;;;498003;239;2319;-43
2022/01/16 03:14:07;;;;;;;;;;;22.60;29.90;;;;;;498464;239;2090;-43
2022/01/16 03:16:09;;;;;;;;;;;22.60;29.90;;;;;;498403;239;1264;-43
2022/01/16 03:22:49;;;;;;;;;;;22.60;29.90;;;;;;498383;239;1293;-43
2022/01/16 03:24:50;;;;;;;;;;;22.60;29.90;;;;;;498587;239;2188;-43
2022/01/16 03:26:52;;;;;;;;;;;22.60;29.90;;;;;;498407;236;1266;-43
2022/01/16 03:28:53;;;;;;;;;;;22.60;29.90;;;;;;498707;239;1148;-43
2022/01/16 03:30:54;;;;;;;;;;;22.60;29.90;;;;;;498664;239;1029;-43
2022/01/16 03:32:56;;;;;;;;;;;22.70;29.90;;;;;;498441;239;1497;-43
2022/01/16 03:34:57;;;;;;;;;;;22.70;29.90;;;;;;498789;239;1057;-43
2022/01/16 03:36:58;;;;;;;;;;;22.70;29.90;;;;;;498547;239;1390;-43
2022/01/16 03:39:00;;;;;;;;;;;22.70;29.90;;;;;;498858;239;1135;-43
2022/01/16 03:41:01;;;;;;;;;;;22.70;29.90;;;;;;498423;239;1272;-43
2022/01/16 03:43:09;;;;;;;;;;;22.70;29.90;;;;;;498819;239;1244;-43
2022/01/16 03:45:06;;;;;;;;;;;22.70;29.90;;;;;;498172;239;2721;-44
2022/01/16 03:47:07;;;;;;;;;;;22.70;29.90;;;;;;498429;239;1321;-43
2022/01/16 03:49:08;;;;;;;;;;;22.70;29.90;;;;;;498412;239;955;-43
2022/01/16 03:51:10;;;;;;;;;;;22.70;29.90;;;;;;498766;239;1234;-43
2022/01/16 03:53:11;;;;;;;;;;;22.70;29.80;;;;;;498432;239;1708;-43
2022/01/16 03:55:12;;;;;;;;;;;22.70;29.90;;;;;;498440;239;1195;-43
2022/01/16 03:57:14;;;;;;;;;;;22.80;29.90;;;;;;498795;239;1316;-43
2022/01/16 03:59:15;;;;;;;;;;;22.80;29.90;;;;;;498432;239;1067;-44
2022/01/16 04:01:16;;;;;;;;;;;22.80;29.90;;;;;;498324;237;1422;-43
2022/01/16 04:03:18;;;;;;;;;;;22.80;29.90;;;;;;498443;239;2185;-43
2022/01/16 04:05:21;;;;;;;;;;;22.80;29.90;;;;;;498934;239;1051;-43
2022/01/16 04:07:27;;;;;;;;;;;22.80;29.90;;;;;;498348;239;1176;-43
2022/01/16 04:09:23;;;;;;;;;;;22.80;29.90;;;;;;498541;239;2183;-43
2022/01/16 04:11:25;;;;;;;;;;;22.80;29.90;;;;;;498735;239;1323;-43
2022/01/16 04:13:26;;;;;;;;;;;22.80;29.90;;;;;;498389;239;1193;-43
2022/01/16 04:15:33;;;;;;;;;;;22.80;29.90;;;;;;498868;239;1132;-43
2022/01/16 04:17:35;;;;;;;;;;;22.80;29.80;;;;;;498371;239;1218;-43
2022/01/16 04:19:36;;;;;;;;;;;22.80;29.90;;;;;;498437;239;1201;-43
2022/01/16 04:21:37;;;;;;;;;;;22.80;29.90;;;;;;498660;239;1205;-43
2022/01/16 04:23:39;;;;;;;;;;;22.80;29.90;;;;;;498920;239;2176;-43
2022/01/16 04:25:40;;;;;;;;;;;22.80;29.90;;;;;;498559;239;1292;-43
2022/01/16 04:27:41;;;;;;;;;;;22.80;29.90;;;;;;498853;239;1199;-43
2022/01/16 04:29:43;;;;;;;;;;;22.80;29.90;;;;;;498941;239;1057;-44
2022/01/16 04:31:44;;;;;;;;;;;22.80;29.90;;;;;;498603;239;1207;-43
2022/01/16 04:33:45;;;;;;;;;;;22.80;29.90;;;;;;498911;239;1080;-43
2022/01/16 04:35:47;;;;;;;;;;;22.80;29.90;;;;;;498639;239;1507;-43
2022/01/16 04:37:48;;;;;;;;;;;22.80;29.90;;;;;;498829;239;1749;-43
2022/01/16 04:39:52;;;;;;;;;;;22.80;29.80;;;;;;498869;239;1086;-43
2022/01/16 04:44:10;;;;;;;;;;;22.80;29.80;;;;;;498821;238;2121;-43
2022/01/16 04:46:11;;;;;;;;;;;22.80;29.80;;;;;;498349;239;1802;-43
2022/01/16 04:48:12;;;;;;;;;;;22.80;29.80;;;;;;498365;239;1280;-43
2022/01/16 04:50:14;;;;;;;;;;;22.90;29.90;;;;;;498864;239;1042;-43
2022/01/16 04:52:15;;;;;;;;;;;22.80;29.90;;;;;;498299;239;1453;-43
2022/01/16 04:54:16;;;;;;;;;;;22.80;29.80;;;;;;498796;239;1019;-44
2022/01/16 04:56:18;;;;;;;;;;;22.80;29.90;;;;;;498379;239;1275;-43
2022/01/16 04:58:21;;;;;;;;;;;22.90;29.80;;;;;;498928;239;1226;-43
2022/01/16 05:00:20;;;;;;;;;;;22.90;29.90;;;;;;498362;239;2232;-44
2022/01/16 05:02:21;;;;;;;;;;;22.90;29.80;;;;;;498848;239;1343;-44
2022/01/16 05:04:23;;;;;;;;;;;22.90;29.90;;;;;;498846;239;2173;-43
2022/01/16 05:06:24;;;;;;;;;;;22.90;29.90;;;;;;498776;239;1753;-43
2022/01/16 05:08:25;;;;;;;;;;;22.80;29.80;;;;;;498878;239;1046;-43
2022/01/16 05:10:27;;;;;;;;;;;22.90;29.90;;;;;;498764;239;1178;-43
2022/01/16 05:12:33;;;;;;;;;;;22.90;29.90;;;;;;498409;239;1155;-43
2022/01/16 05:16:51;;;;;;;;;;;22.90;29.80;;;;;;498402;239;1469;-43
2022/01/16 05:18:52;;;;;;;;;;;22.90;29.80;;;;;;498652;239;1173;-43
2022/01/16 05:20:53;;;;;;;;;;;22.90;29.80;;;;;;498424;239;1343;-43
2022/01/16 05:22:55;;;;;;;;;;;22.90;29.80;;;;;;498364;239;1172;-43
2022/01/16 05:24:56;;;;;;;;;;;22.90;29.80;;;;;;498842;239;2128;-43
2022/01/16 05:26:57;;;;;;;;;;;22.90;29.90;;;;;;498372;239;1206;-43
2022/01/16 05:28:59;;;;;;;;;;;22.80;29.90;;;;;;498956;239;1036;-43
2022/01/16 05:31:01;;;;;;;;;;;22.70;30.00;;;;;;498578;239;2075;-43
2022/01/16 05:33:03;;;;;;;;;;;22.50;30.20;;;;;;498386;239;1195;-43
2022/01/16 05:35:04;;;;;;;;;;;22.30;30.50;;;;;;498352;239;1205;-43
2022/01/16 05:37:05;;;;;;;;;;;22.20;30.80;;;;;;498769;239;1154;-43
2022/01/16 05:39:07;;;;;;;;;;;22.10;31.00;;;;;;498662;239;1045;-43
2022/01/16 05:41:08;;;;;;;;;;;22.00;31.10;;;;;;498405;236;1270;-43
2022/01/16 05:43:09;;;;;;;;;;;22.00;31.10;;;;;;498926;239;1048;-43
2022/01/16 05:45:10;;;;;;;;;;;21.90;31.30;;;;;;498469;239;2165;-43
2022/01/16 05:47:12;;;;;;;;;;;21.80;31.40;;;;;;498357;239;1187;-43
2022/01/16 05:49:13;;;;;;;;;;;21.80;31.50;;;;;;498453;239;1073;-43
2022/01/16 05:51:15;;;;;;;;;;;21.70;31.50;;;;;;498383;239;1243;-43
2022/01/16 05:53:16;;;;;;;;;;;21.70;31.60;;;;;;498927;239;1107;-43
2022/01/16 05:55:18;;;;;;;;;;;21.60;31.70;;;;;;498551;239;1048;-43
2022/01/16 05:57:19;;;;;;;;;;;21.60;31.70;;;;;;498453;239;1234;-43
2022/01/16 05:59:20;;;;;;;;;;;21.60;31.70;;;;;;498936;239;1063;-43
2022/01/16 06:01:22;;;;;;;;;;;21.40;31.80;;;;;;498556;239;1227;-43
2022/01/16 06:03:23;;;;;;;;;;;21.50;31.80;;;;;;498482;239;1055;-43
2022/01/16 06:05:24;;;;;;;;;;;21.50;31.80;;;;;;498903;239;2117;-43
2022/01/16 06:07:26;;;;;;;;;;;21.50;31.90;;;;;;498854;239;1109;-43
2022/01/16 06:09:27;;;;;;;;;;;21.40;31.80;;;;;;498954;239;1025;-43
2022/01/16 06:11:28;;;;;;;;;;;21.40;31.90;;;;;;498409;239;1382;-43
2022/01/16 06:13:30;;;;;;;;;;;21.40;32.00;;;;;;498916;239;1016;-43
2022/01/16 06:15:31;;;;;;;;;;;21.40;32.00;;;;;;498926;236;1376;-43
2022/01/16 06:17:32;;;;;;;;;;;21.40;32.00;;;;;;498408;239;1249;-43
2022/01/16 06:19:33;;;;;;;;;;;21.30;32.00;;;;;;498947;239;1134;-43
2022/01/16 06:21:35;;;;;;;;;;;21.30;32.10;;;;;;498599;239;1152;-43
2022/01/16 06:23:36;;;;;;;;;;;21.30;32.10;;;;;;498953;239;1082;-43
2022/01/16 06:25:37;;;;;;;;;;;21.30;32.10;;;;;;498833;239;2180;-43
2022/01/16 06:27:39;;;;;;;;;;;21.30;32.10;;;;;;498376;239;1213;-43
2022/01/16 06:29:40;;;;;;;;;;;21.30;32.10;;;;;;498944;239;1203;-43
2022/01/16 06:31:41;;;;;;;;;;;21.20;32.20;;;;;;498519;236;1642;-43
2022/01/16 06:33:43;;;;;;;;;;;21.20;32.20;;;;;;498459;239;1212;-43
2022/01/16 06:35:44;;;;;;;;;;;21.20;32.20;;;;;;498865;239;1257;-43
2022/01/16 06:37:45;;;;;;;;;;;21.20;32.20;;;;;;498314;239;1206;-43
2022/01/16 06:39:47;;;;;;;;;;;21.20;32.20;;;;;;498922;239;1154;-43
2022/01/16 06:41:48;;;;;;;;;;;21.20;32.20;;;;;;498256;239;1212;-43
2022/01/16 06:43:49;;;;;;;;;;;21.20;32.20;;;;;;498920;239;1087;-43
2022/01/16 06:45:51;;;;;;;;;;;21.20;32.20;;;;;;498836;239;2106;-43
2022/01/16 06:47:52;;;;;;;;;;;21.10;32.20;;;;;;498859;239;1162;-43
2022/01/16 06:49:54;;;;;;;;;;;21.10;32.20;;;;;;498910;239;1273;-43
2022/01/16 06:51:55;;;;;;;;;;;21.10;32.30;;;;;;498505;239;1687;-43
2022/01/16 06:53:57;;;;;;;;;;;21.10;32.20;;;;;;498437;239;1271;-43
2022/01/16 06:55:57;;;;;;;;;;;21.10;32.30;;;;;;498802;239;2153;-43
2022/01/16 06:57:59;;;;;;;;;;;21.10;32.20;;;;;;498428;239;1174;-43
2022/01/16 07:00:00;;;;;;;;;;;21.10;32.30;;;;;;498943;239;1227;-43
2022/01/16 07:02:01;;;;;;;;;;;21.10;32.30;;;;;;498490;239;1272;-43
2022/01/16 07:04:03;;;;;;;;;;;21.10;32.30;;;;;;498907;239;1034;-43
2022/01/16 07:06:04;;;;;;;;;;;21.00;32.30;;;;;;498788;239;2113;-43
2022/01/16 07:08:05;;;;;;;;;;;21.00;32.40;;;;;;498423;239;1481;-43
2022/01/16 07:10:07;;;;;;;;;;;21.00;32.40;;;;;;498905;239;1189;-43
2022/01/16 07:12:08;;;;;;;;;;;21.00;32.40;;;;;;498650;239;1292;-43
2022/01/16 07:14:09;;;;;;;;;;;21.00;32.40;;;;;;498709;239;1253;-43
2022/01/16 07:16:11;;;;;;;;;;;21.00;32.30;;;;;;498555;239;1216;-43
2022/01/16 07:18:12;;;;;;;;;;;21.00;32.40;;;;;;498389;239;1182;-43
2022/01/16 07:20:15;;;;;;;;;;;21.00;32.50;;;;;;498471;239;1248;-43
2022/01/16 07:22:15;;;;;;;;;;;21.00;32.50;;;;;;498297;239;2203;-43
2022/01/16 07:24:17;;;;;;;;;;;21.00;32.40;;;;;;498436;239;1141;-43
2022/01/16 07:26:18;;;;;;;;;;;20.90;32.40;;;;;;498352;239;2173;-43
2022/01/16 07:28:19;;;;;;;;;;;21.00;32.50;;;;;;498459;239;1213;-43
2022/01/16 07:30:21;;;;;;;;;;;20.90;32.50;;;;;;498461;239;1033;-43
2022/01/16 07:32:22;;;;;;;;;;;21.00;32.40;;;;;;498397;239;1263;-43
2022/01/16 07:34:23;;;;;;;;;;;20.90;32.40;;;;;;498933;239;1337;-43
2022/01/16 07:36:25;;;;;;;;;;;20.90;32.50;;;;;;498830;239;1167;-43
2022/01/16 07:38:26;;;;;;;;;;;20.90;32.50;;;;;;498447;239;1220;-43
2022/01/16 07:40:27;;;;;;;;;;;20.90;32.50;;;;;;498477;239;1058;-43
2022/01/16 07:42:29;;;;;;;;;;;20.90;32.50;;;;;;498397;239;1421;-43
2022/01/16 07:44:30;;;;;;;;;;;20.90;32.50;;;;;;498474;239;1061;-43
2022/01/16 07:46:31;;;;;;;;;;;20.90;32.50;;;;;;498815;239;2231;-43
2022/01/16 07:48:33;;;;;;;;;;;20.90;32.50;;;;;;498916;239;1226;-43
2022/01/16 07:50:34;;;;;;;;;;;20.90;32.50;;;;;;498438;239;1293;-43
2022/01/16 07:52:35;;;;;;;;;;;20.90;32.50;;;;;;498485;239;1214;-43
2022/01/16 07:54:37;;;;;;;;;;;20.90;32.50;;;;;;498463;239;1066;-43
2022/01/16 07:56:38;;;;;;;;;;;20.90;32.60;;;;;;498356;239;1327;-43
2022/01/16 07:58:41;;;;;;;;;;;20.90;32.50;;;;;;498510;239;1232;-43
2022/01/16 08:00:40;;;;;;;;;;;20.90;32.60;;;;;;498757;239;1853;-43
2022/01/16 08:02:42;;;;;;;;;;;20.80;32.40;;;;;;498863;239;1154;-43
2022/01/16 08:04:43;;;;;;;;;;;20.80;32.50;;;;;;498651;239;2189;-43
2022/01/16 08:06:44;;;;;;;;;;;20.80;32.50;;;;;;498329;239;1255;-43
2022/01/16 08:08:46;;;;;;;;;;;20.90;32.50;;;;;;498585;239;1212;-43
2022/01/16 08:10:47;;;;;;;;;;;20.90;32.50;;;;;;498521;239;1721;-43
2022/01/16 08:12:48;;;;;;;;;;;20.90;32.60;;;;;;498430;239;1608;-43
2022/01/16 08:14:50;;;;;;;;;;;20.80;32.50;;;;;;498926;239;1159;-43
2022/01/16 08:16:51;;;;;;;;;;;20.80;32.50;;;;;;498345;239;1155;-43
2022/01/16 08:18:52;;;;;;;;;;;20.80;32.50;;;;;;498459;239;1203;-43
2022/01/16 08:20:54;;;;;;;;;;;20.80;32.60;;;;;;498577;239;1323;-43
2022/01/16 08:22:55;;;;;;;;;;;20.80;32.50;;;;;;498399;239;1045;-43
2022/01/16 08:24:56;;;;;;;;;;;20.80;32.60;;;;;;498909;239;2201;-43
2022/01/16 08:26:58;;;;;;;;;;;20.80;32.60;;;;;;498643;239;1342;-43
2022/01/16 08:28:59;;;;;;;;;;;20.80;32.60;;;;;;498522;239;1168;-43
2022/01/16 08:31:00;;;;;;;;;;;20.80;32.60;;;;;;498869;239;1199;-43
2022/01/16 08:33:02;;;;;;;;;;;20.80;32.60;;;;;;498907;239;1259;-43
2022/01/16 08:35:03;;;;;;;;;;;20.80;32.60;;;;;;498929;239;1009;-43
2022/01/16 08:37:04;;;;;;;;;;;20.70;32.60;;;;;;498677;239;1160;-43
2022/01/16 08:39:05;;;;;;;;;;;20.80;32.60;;;;;;498942;239;1101;-43
2022/01/16 08:41:07;;;;;;;;;;;20.80;32.60;;;;;;498752;239;1137;-43
2022/01/16 08:43:09;;;;;;;;;;;20.70;32.60;;;;;;498765;239;1110;-43
2022/01/16 08:45:10;;;;;;;;;;;20.80;32.60;;;;;;498494;239;2174;-43
2022/01/16 08:47:11;;;;;;;;;;;20.80;32.60;;;;;;498523;239;1146;-43
2022/01/16 08:49:13;;;;;;;;;;;20.80;32.60;;;;;;498904;239;1066;-43
2022/01/16 08:51:14;;;;;;;;;;;20.70;32.50;;;;;;498627;239;1134;-43
2022/01/16 08:53:15;;;;;;;;;;;20.80;32.60;;;;;;498417;239;1170;-43
2022/01/16 08:55:17;;;;;;;;;;;20.80;32.70;;;;;;498425;239;1054;-43
2022/01/16 08:57:18;;;;;;;;;;;20.70;32.60;;;;;;498435;239;1368;-43
2022/01/16 08:59:19;;;;;;;;;;;20.70;32.60;;;;;;498501;239;1193;-43
2022/01/16 09:01:21;;;;;;;;;;;20.70;32.60;;;;;;498730;239;1158;-43
2022/01/16 09:03:22;;;;;;;;;;;20.80;32.60;;;;;;498874;239;1091;-43
2022/01/16 09:05:23;;;;;;;;;;;20.70;32.60;;;;;;498877;239;2113;-43
2022/01/16 09:07:25;;;;;;;;;;;20.70;32.60;;;;;;498466;239;1168;-43
2022/01/16 09:09:26;;;;;;;;;;;20.70;32.60;;;;;;498405;239;1037;-43
2022/01/16 09:11:27;;;;;;;;;;;20.70;32.70;;;;;;498447;239;1338;-43
2022/01/16 09:13:29;;;;;;;;;;;20.70;32.60;;;;;;498640;239;1235;-43
2022/01/16 09:15:30;;;;;;;;;;;20.70;32.60;;;;;;498406;239;1114;-43
2022/01/16 09:17:31;;;;;;;;;;;20.70;32.60;;;;;;498736;239;1158;-43
2022/01/16 09:19:33;;;;;;;;;;;20.70;32.60;;;;;;498424;239;1045;-43
2022/01/16 09:21:34;;;;;;;;;;;20.70;32.60;;;;;;498302;239;1511;-43
2022/01/16 09:23:37;;;;;;;;;;;20.70;32.70;;;;;;498382;239;1190;-43
2022/01/16 09:25:37;;;;;;;;;;;20.70;32.70;;;;;;498730;239;2110;-43
2022/01/16 09:27:38;;;;;;;;;;;20.70;32.60;;;;;;498592;239;1101;-43
2022/01/16 09:29:39;;;;;;;;;;;20.70;32.60;;;;;;498439;239;1224;-43
2022/01/16 09:31:40;;;;;;;;;;;20.70;32.70;;;;;;498728;239;1327;-43
2022/01/16 09:33:42;;;;;;;;;;;20.70;32.60;;;;;;498678;239;2172;-43
2022/01/16 09:35:43;;;;;;;;;;;20.70;32.60;;;;;;498340;239;1464;-43
2022/01/16 09:37:44;;;;;;;;;;;20.60;32.70;;;;;;498290;239;1212;-43
2022/01/16 09:39:46;;;;;;;;;;;20.70;32.70;;;;;;498875;239;1181;-43
2022/01/16 09:41:47;;;;;;;;;;;20.60;32.60;;;;;;498560;239;1377;-43
2022/01/16 09:43:48;;;;;;;;;;;20.70;32.70;;;;;;498390;239;1305;-43
2022/01/16 09:45:51;;;;;;;;;;;20.70;32.70;;;;;;498311;239;2189;-43
2022/01/16 09:47:51;;;;;;;;;;;20.60;32.60;;;;;;498286;239;1770;-43
2022/01/16 09:49:52;;;;;;;;;;;20.60;32.60;;;;;;498445;239;1203;-43
2022/01/16 09:51:54;;;;;;;;;;;20.70;32.70;;;;;;498459;239;1364;-43
2022/01/16 09:53:55;;;;;;;;;;;20.60;32.60;;;;;;498917;239;1322;-43
2022/01/16 09:55:56;;;;;;;;;;;20.60;32.60;;;;;;498414;239;1161;-43
2022/01/16 09:57:58;;;;;;;;;;;20.60;32.70;;;;;;498888;239;1106;-43
2022/01/16 09:59:59;;;;;;;;;;;20.60;32.70;;;;;;498560;239;1132;-43
2022/01/16 10:02:00;;;;;;;;;;;20.60;32.70;;;;;;498785;239;1298;-43
2022/01/16 10:04:02;;;;;;;;;;;20.60;32.70;;;;;;498397;239;1143;-43
2022/01/16 10:06:03;;;;;;;;;;;20.60;32.60;;;;;;498299;239;2181;-43
2022/01/16 10:08:04;;;;;;;;;;;20.60;32.60;;;;;;498857;239;1231;-43
2022/01/16 10:10:05;;;;;;;;;;;20.60;32.70;;;;;;498938;239;1104;-43
2022/01/16 10:12:14;;;;;;;;;;;20.60;32.60;;;;;;498630;239;1221;-43
2022/01/16 10:14:14;;;;;;;;;;;20.60;32.60;;;;;;498321;239;2320;-43
2022/01/16 10:16:10;;;;;;;;;;;20.60;32.70;;;;;;498054;239;2553;-43
2022/01/16 10:18:12;;;;;;;;;;;20.60;32.70;;;;;;498429;239;1051;-43
2022/01/16 10:20:14;;;;;;;;;;;20.60;32.70;;;;;;498629;239;1076;-43
2022/01/16 10:22:14;;;;;;;;;;;20.60;32.70;;;;;;498420;239;2298;-43
2022/01/16 10:24:16;;;;;;;;;;;20.60;32.70;;;;;;498428;239;1065;-43
2022/01/16 10:26:17;;;;;;;;;;;20.60;32.70;;;;;;498670;239;2125;-43
2022/01/16 10:28:18;;;;;;;;;;;20.60;32.70;;;;;;498590;239;1326;-43
2022/01/16 10:30:19;;;;;;;;;;;20.60;32.60;;;;;;498500;239;1370;-43
2022/01/16 10:32:21;;;;;;;;;;;20.60;32.60;;;;;;498300;239;1262;-43
2022/01/16 10:34:22;;;;;;;;;;;20.60;32.60;;;;;;498849;239;1045;-43
2022/01/16 10:36:23;;;;;;;;;;;20.60;32.60;;;;;;498510;239;1385;-43
2022/01/16 10:38:25;;;;;;;;;;;20.60;32.70;;;;;;498577;239;1069;-43
2022/01/16 10:40:27;;;;;;;;;;;20.60;32.60;;;;;;498910;239;1393;-43
2022/01/16 10:42:27;;;;;;;;;;;20.60;32.60;;;;;;498417;239;2325;-43
2022/01/16 10:44:29;;;;;;;;;;;20.60;32.70;;;;;;498433;239;1087;-43
2022/01/16 10:46:30;;;;;;;;;;;20.50;32.70;;;;;;498318;239;2193;-43
2022/01/16 10:48:32;;;;;;;;;;;20.60;32.70;;;;;;498740;239;1038;-43
2022/01/16 10:50:33;;;;;;;;;;;20.60;32.70;;;;;;498488;239;1182;-43
2022/01/16 10:52:34;;;;;;;;;;;20.60;32.70;;;;;;498360;239;1241;-43
2022/01/16 10:54:36;;;;;;;;;;;20.60;32.70;;;;;;498384;239;1583;-43
2022/01/16 10:56:37;;;;;;;;;;;20.60;32.70;;;;;;498812;239;1376;-43
2022/01/16 10:58:38;;;;;;;;;;;20.60;32.70;;;;;;498598;239;1157;-43
2022/01/16 11:00:39;;;;;;;;;;;20.50;32.70;;;;;;498543;239;1095;-43
2022/01/16 11:02:41;;;;;;;;;;;20.50;32.70;;;;;;498401;239;1208;-43
2022/01/16 11:04:42;;;;;;;;;;;20.60;32.70;;;;;;498947;239;1047;-43
2022/01/16 11:06:44;;;;;;;;;;;20.60;32.70;;;;;;498361;239;2181;-43
2022/01/16 11:08:48;;;;;;;;;;;20.50;32.60;;;;;;498505;239;1130;-43
2022/01/16 11:10:46;;;;;;;;;;;20.50;32.60;;;;;;498766;239;2331;-43
2022/01/16 11:12:48;;;;;;;;;;;20.60;32.70;;;;;;498442;239;1186;-43
2022/01/16 11:14:50;;;;;;;;;;;20.60;32.70;;;;;;498712;239;1213;-43
2022/01/16 11:16:51;;;;;;;;;;;20.60;32.70;;;;;;498291;236;1360;-43
2022/01/16 11:18:52;;;;;;;;;;;20.60;32.70;;;;;;498896;239;1145;-43
2022/01/16 11:20:57;;;;;;;;;;;20.60;32.60;;;;;;498806;239;1136;-43
2022/01/16 11:23:01;;;;;;;;;;;20.60;32.70;;;;;;498147;239;2374;-43
2022/01/16 11:25:10;;;;;;;;;;;20.60;32.70;;;;;;498345;239;2259;-43
2022/01/16 11:27:01;;;;;;;;;;;20.60;32.60;;;;;;497657;239;2682;-43
2022/01/16 11:29:04;;;;;;;;;;;20.50;32.60;;;;;;498919;239;1039;-43
2022/01/16 11:31:04;;;;;;;;;;;20.50;32.60;;;;;;498458;239;2366;-43
2022/01/16 11:33:05;;;;;;;;;;;20.50;32.70;;;;;;498573;239;1143;-43
2022/01/16 11:35:07;;;;;;;;;;;20.60;32.70;;;;;;498912;239;1253;-43
2022/01/16 11:37:08;;;;;;;;;;;20.60;32.70;;;;;;498540;239;1284;-43
2022/01/16 11:39:09;;;;;;;;;;;20.60;32.70;;;;;;498463;239;1036;-43
2022/01/16 11:41:11;;;;;;;;;;;20.60;32.70;;;;;;498779;239;1350;-43
2022/01/16 11:43:12;;;;;;;;;;;20.60;32.70;;;;;;498878;239;1282;-43
2022/01/16 11:45:13;;;;;;;;;;;20.60;32.70;;;;;;498771;239;1141;-43
2022/01/16 11:47:15;;;;;;;;;;;20.60;32.70;;;;;;498329;239;2193;-43
2022/01/16 11:49:19;;;;;;;;;;;20.60;32.70;;;;;;498944;239;1132;-43
2022/01/16 11:51:17;;;;;;;;;;;20.50;32.70;;;;;;498560;239;2419;-43
2022/01/16 11:53:19;;;;;;;;;;;20.50;32.70;;;;;;498460;239;1036;-43
2022/01/16 11:55:20;;;;;;;;;;;20.50;32.70;;;;;;498915;239;1090;-43
2022/01/16 11:57:21;;;;;;;;;;;20.50;32.60;;;;;;498408;239;1212;-43
2022/01/16 11:59:24;;;;;;;;;;;20.50;32.60;;;;;;498460;239;1128;-43
2022/01/16 12:01:24;;;;;;;;;;;20.50;32.60;;;;;;498434;239;2293;-43
2022/01/16 12:03:25;;;;;;;;;;;20.60;32.70;;;;;;498937;239;1291;-43
2022/01/16 12:05:27;;;;;;;;;;;20.50;32.70;;;;;;498825;236;1442;-43
2022/01/16 12:07:28;;;;;;;;;;;20.50;32.70;;;;;;498684;239;2175;-43
2022/01/16 12:09:29;;;;;;;;;;;20.50;32.60;;;;;;498870;239;1206;-43
2022/01/16 12:11:31;;;;;;;;;;;20.60;32.70;;;;;;498797;239;1290;-43
2022/01/16 12:13:32;;;;;;;;;;;20.60;32.70;;;;;;498437;239;1150;-43
2022/01/16 12:15:33;;;;;;;;;;;20.50;32.60;;;;;;498715;239;1289;-43
2022/01/16 12:17:35;;;;;;;;;;;20.70;32.40;;;;;;498383;239;1146;-43
2022/01/16 12:19:37;;;;;;;;;;;20.90;32.10;;;;;;498526;239;1064;-43
2022/01/16 12:21:37;;;;;;;;;;;21.00;31.90;;;;;;498268;239;2487;-43
2022/01/16 12:23:39;;;;;;;;;;;21.10;31.60;;;;;;498425;239;1095;-43
2022/01/16 12:25:40;;;;;;;;;;;21.20;31.50;;;;;;498903;239;1333;-43
2022/01/16 12:27:44;;;;;;;;;;;21.30;31.50;;;;;;498447;239;2189;-43
2022/01/16 12:29:43;;;;;;;;;;;21.40;31.40;;;;;;498324;239;2065;-43